Time;durP1;ratioP1;P1;durP2;ratioP2;P2;SDS_P1;SDS_P2;PMS_P1;PMS_P2;Temp;Humidity;BMP_temperature;BMP_pressure;BME280_temperature;BME280_humidity;BME280_pressure;Samples;Min_cycle;Max_cycle;Signal;HPM_P1;HPM_P2
2021/08/25 00:00:12;;;;;;;9.70;6.07;;;;;;;12.64;93.36;96087.16;5020330;28;20050;-77
2021/08/25 00:02:59;;;;;;;9.25;5.97;;;;;;;12.61;93.38;96091.13;5019256;28;20119;-77
2021/08/25 00:05:24;;;;;;;8.38;5.70;;;;;;;12.57;93.16;96076.88;5029646;28;20520;-77
2021/08/25 00:07:50;;;;;;;9.32;5.70;;;;;;;12.53;92.38;96078.47;5012133;28;20045;-77
2021/08/25 00:10:15;;;;;;;8.43;5.90;;;;;;;12.47;94.65;96079.56;5021273;28;20053;-77
2021/08/25 00:12:40;;;;;;;10.73;6.28;;;;;;;12.48;92.82;96086.41;5030186;28;20046;-77
2021/08/25 00:15:07;;;;;;;9.88;6.63;;;;;;;12.46;92.70;96077.97;5029669;28;20052;-77
2021/08/25 00:17:33;;;;;;;11.43;6.57;;;;;;;12.44;92.87;96083.50;5008342;28;20042;-77
2021/08/25 00:19:58;;;;;;;10.30;6.07;;;;;;;12.45;93.88;96079.78;5013224;28;20045;-77
2021/08/25 00:22:24;;;;;;;11.88;6.15;;;;;;;12.45;93.43;96086.94;5020720;28;20045;-77
2021/08/25 00:24:50;;;;;;;10.38;6.03;;;;;;;12.51;92.82;96080.56;4992441;28;20077;-77
2021/08/25 00:27:15;;;;;;;10.10;6.63;;;;;;;12.48;94.88;96081.13;5010079;28;20503;-77
2021/08/25 00:29:41;;;;;;;12.77;6.43;;;;;;;12.58;93.59;96073.16;5009612;28;20053;-78
2021/08/25 00:32:07;;;;;;;11.13;6.65;;;;;;;12.51;93.77;96069.22;5016228;28;20037;-77
2021/08/25 00:34:32;;;;;;;10.80;6.30;;;;;;;12.45;93.34;96076.38;5029258;28;20120;-77
2021/08/25 00:36:58;;;;;;;9.50;6.60;;;;;;;12.39;93.89;96072.16;5029318;28;20489;-76
2021/08/25 00:39:24;;;;;;;9.45;6.60;;;;;;;12.47;94.67;96069.00;5017744;28;20050;-77
2021/08/25 00:41:49;;;;;;;10.85;6.65;;;;;;;12.49;94.51;96066.88;5013844;28;20531;-77
2021/08/25 00:44:16;;;;;;;9.70;6.72;;;;;;;12.40;95.16;96069.25;5013873;28;20058;-77
2021/08/25 00:46:42;;;;;;;9.82;7.13;;;;;;;12.37;94.29;96071.63;5013564;28;20129;-77
2021/08/25 00:49:08;;;;;;;10.65;7.05;;;;;;;12.38;95.07;96065.31;5029079;28;20084;-77
2021/08/25 00:51:33;;;;;;;11.70;7.53;;;;;;;12.39;94.51;96066.88;5013247;28;20050;-77
2021/08/25 00:54:00;;;;;;;12.05;7.43;;;;;;;12.39;95.22;96065.03;5013437;28;20045;-77
2021/08/25 00:56:26;;;;;;;10.60;6.97;;;;;;;12.43;94.60;96073.22;5013282;28;20574;-78
2021/08/25 00:58:52;;;;;;;12.07;6.97;;;;;;;12.34;94.23;96064.25;5017732;28;20044;-77
2021/08/25 01:01:35;;;;;;;11.00;7.80;;;;;;;12.38;93.90;96065.31;5031704;28;20048;-77
2021/08/25 01:04:13;;;;;;;12.07;6.93;;;;;;;12.38;94.74;96065.31;5023117;28;20045;-77
2021/08/25 01:06:39;;;;;;;10.88;7.22;;;;;;;12.43;95.10;96060.03;5033490;28;20053;-77
2021/08/25 01:09:06;;;;;;;9.80;6.93;;;;;;;12.39;94.94;96066.88;5030629;28;20525;-77
2021/08/25 01:11:35;;;;;;;12.13;7.75;;;;;;;12.26;94.30;96063.72;5012974;28;20045;-78
2021/08/25 01:14:02;;;;;;;13.57;7.65;;;;;;;12.28;94.10;96060.81;5013346;28;20050;-77
2021/08/25 01:16:27;;;;;;;12.90;8.65;;;;;;;12.41;95.74;96059.47;5023149;28;20037;-77
2021/08/25 01:18:56;;;;;;;10.88;7.55;;;;;;;12.36;94.97;96062.16;5025385;28;20879;-77
2021/08/25 01:21:22;;;;;;;12.88;7.82;;;;;;;12.37;96.80;96063.72;5012483;28;20073;-77
2021/08/25 01:23:48;;;;;;;11.85;8.45;;;;;;;12.37;95.39;96053.16;5032717;28;20483;-77
2021/08/25 01:26:17;;;;;;;11.00;8.00;;;;;;;12.51;95.68;96059.47;5015267;28;20757;-77
2021/08/25 01:28:48;;;;;;;11.80;8.50;;;;;;;12.38;96.58;96054.75;5033033;28;20049;-77
2021/08/25 01:31:14;;;;;;;11.18;8.15;;;;;;;12.43;96.46;96052.09;4995020;28;20038;-77
2021/08/25 01:33:39;;;;;;;13.32;8.38;;;;;;;12.51;96.39;96054.19;5030669;28;20041;-77
2021/08/25 01:36:17;;;;;;;12.90;8.55;;;;;;;12.46;96.72;96046.28;5033021;28;20049;-77
2021/08/25 01:38:55;;;;;;;13.60;8.90;;;;;;;12.43;97.41;96036.25;5026784;28;20037;-77
2021/08/25 01:41:22;;;;;;;15.77;9.75;;;;;;;12.40;97.42;96042.09;5013109;28;20124;-77
2021/08/25 01:43:58;;;;;;;13.50;9.75;;;;;;;12.40;97.36;96042.09;5000154;28;20053;-77
2021/08/25 01:46:27;;;;;;;16.30;9.55;;;;;;;12.43;97.77;96038.91;5030952;28;20261;-77
2021/08/25 01:48:54;;;;;;;13.65;9.48;;;;;;;12.44;97.89;96043.09;5012641;28;20049;-78
2021/08/25 01:51:19;;;;;;;14.90;9.82;;;;;;;12.39;97.67;96037.84;4994617;28;20045;-77
2021/08/25 01:53:45;;;;;;;16.40;9.27;;;;;;;12.38;97.50;96037.03;5012741;28;20057;-78
2021/08/25 01:56:11;;;;;;;14.02;9.73;;;;;;;12.36;97.06;96035.75;5012780;28;20046;-78
2021/08/25 01:58:37;;;;;;;11.95;8.88;;;;;;;12.39;96.78;96029.94;5012594;28;20121;-77
2021/08/25 02:01:03;;;;;;;13.35;9.95;;;;;;;12.40;96.91;96031.53;5006617;28;20045;-77
2021/08/25 02:03:28;;;;;;;14.02;9.32;;;;;;;12.48;97.72;96023.84;5031774;28;20030;-77
2021/08/25 02:05:54;;;;;;;14.65;9.50;;;;;;;12.47;97.41;96010.91;5032108;28;20430;-77
2021/08/25 02:08:19;;;;;;;13.65;8.98;;;;;;;12.50;96.43;96015.66;5029414;28;20071;-79
2021/08/25 02:10:45;;;;;;;14.10;9.80;;;;;;;12.55;96.81;96012.97;5011735;28;20049;-77
2021/08/25 02:13:10;;;;;;;12.77;8.55;;;;;;;12.43;96.04;96009.88;5027681;28;20042;-78
2021/08/25 02:15:35;;;;;;;15.18;9.88;;;;;;;12.36;95.79;96010.16;5030988;28;20057;-77
2021/08/25 02:18:01;;;;;;;13.40;9.00;;;;;;;12.29;95.55;95999.84;5030285;28;20041;-78
2021/08/25 02:20:26;;;;;;;12.57;8.55;;;;;;;12.40;96.43;96000.63;5031676;28;20095;-77
2021/08/25 02:22:52;;;;;;;14.40;8.90;;;;;;;12.29;96.49;95997.22;5018998;28;20074;-78
2021/08/25 02:25:18;;;;;;;13.10;9.10;;;;;;;12.21;95.90;95997.78;5011010;28;20076;-78
2021/08/25 02:27:43;;;;;;;12.68;9.00;;;;;;;12.25;97.07;95995.38;5012194;28;20050;-78
2021/08/25 02:30:09;;;;;;;13.15;9.20;;;;;;;12.14;96.08;95986.72;5011806;28;20038;-77
2021/08/25 02:32:35;;;;;;;15.77;9.00;;;;;;;12.04;96.92;95981.44;5014608;28;20518;-78
2021/08/25 02:35:00;;;;;;;12.40;9.10;;;;;;;11.95;97.04;95974.09;5031379;28;20045;-77
2021/08/25 02:37:26;;;;;;;13.80;9.05;;;;;;;11.94;97.25;95977.78;5031415;28;20045;-77
2021/08/25 02:39:51;;;;;;;13.35;8.60;;;;;;;11.75;97.13;95974.06;5013424;28;20042;-78
2021/08/25 02:42:17;;;;;;;13.48;8.80;;;;;;;11.75;97.28;95971.44;5019658;28;20046;-77
2021/08/25 02:44:42;;;;;;;14.43;9.05;;;;;;;11.71;97.41;95967.72;5011782;28;20052;-77
2021/08/25 02:47:10;;;;;;;15.00;9.13;;;;;;;11.75;97.94;95971.44;5010135;28;20053;-77
2021/08/25 02:49:36;;;;;;;14.98;8.88;;;;;;;11.64;98.03;95967.22;5011299;28;20046;-78
2021/08/25 02:52:01;;;;;;;12.15;8.50;;;;;;;11.66;97.05;95980.94;5011179;28;20048;-77
2021/08/25 02:54:27;;;;;;;18.40;9.55;;;;;;;11.65;97.35;95979.34;5011326;28;20042;-77
2021/08/25 02:56:52;;;;;;;13.93;9.18;;;;;;;11.60;97.70;95982.78;5026701;28;20052;-78
2021/08/25 02:59:18;;;;;;;15.70;9.43;;;;;;;11.51;98.74;95989.66;5031373;28;20549;-77
2021/08/25 03:01:43;;;;;;;11.98;8.27;;;;;;;11.52;98.31;95992.00;5018972;28;20066;-77
2021/08/25 03:04:09;;;;;;;12.68;9.00;;;;;;;11.55;97.70;95991.47;5011049;28;20042;-78
2021/08/25 03:06:34;;;;;;;13.80;8.98;;;;;;;11.44;98.46;95979.34;5011110;28;20403;-77
2021/08/25 03:09:00;;;;;;;14.60;8.85;;;;;;;11.42;98.49;95981.44;5025817;28;20038;-78
2021/08/25 03:11:25;;;;;;;13.77;9.00;;;;;;;11.26;98.77;95984.09;5016047;28;20042;-77
2021/08/25 03:13:51;;;;;;;16.08;9.45;;;;;;;11.25;99.04;95986.97;5011153;28;20093;-78
2021/08/25 03:16:16;;;;;;;13.02;8.70;;;;;;;11.30;99.20;95983.56;5010741;28;20128;-77
2021/08/25 03:18:42;;;;;;;13.82;8.88;;;;;;;11.18;99.05;95976.69;5016768;28;20375;-77
2021/08/25 03:21:07;;;;;;;12.80;9.18;;;;;;;11.18;99.03;95975.91;5011309;28;20054;-77
2021/08/25 03:23:33;;;;;;;16.23;9.35;;;;;;;11.10;99.72;95974.56;5010013;28;20546;-77
2021/08/25 03:25:58;;;;;;;13.65;8.98;;;;;;;11.09;99.42;95968.50;5008846;28;20057;-77
2021/08/25 03:28:24;;;;;;;15.38;8.52;;;;;;;11.06;98.48;95973.50;5010248;28;20491;-77
2021/08/25 03:30:49;;;;;;;15.90;8.80;;;;;;;11.01;99.02;95971.66;5009399;28;20419;-78
2021/08/25 03:33:15;;;;;;;14.70;8.50;;;;;;;10.97;99.36;95978.47;5025611;28;20498;-77
2021/08/25 03:35:40;;;;;;;13.55;8.80;;;;;;;10.98;99.97;95971.38;5011385;28;20037;-77
2021/08/25 03:38:06;;;;;;;14.07;8.20;;;;;;;10.89;99.36;95964.00;5027881;28;20057;-77
2021/08/25 03:40:31;;;;;;;12.15;8.10;;;;;;;10.88;100.00;95972.16;5009618;28;20069;-77
2021/08/25 03:42:57;;;;;;;12.32;8.15;;;;;;;10.86;100.00;95975.03;5009936;28;20050;-77
2021/08/25 03:45:23;;;;;;;14.20;9.15;;;;;;;10.77;99.88;95971.31;5011496;28;20056;-77
2021/08/25 03:47:48;;;;;;;14.23;8.98;;;;;;;10.77;100.00;95976.59;4998638;28;20571;-77
2021/08/25 03:50:13;;;;;;;12.65;8.30;;;;;;;10.85;99.22;95972.66;5009516;28;20840;-77
2021/08/25 03:52:39;;;;;;;13.68;8.70;;;;;;;10.71;99.95;95967.09;5009718;28;20046;-77
2021/08/25 03:55:05;;;;;;;12.63;8.32;;;;;;;10.67;99.88;95964.16;5009989;28;20042;-77
2021/08/25 03:57:30;;;;;;;13.30;8.80;;;;;;;10.66;100.00;95964.44;5009814;28;20038;-77
2021/08/25 03:59:56;;;;;;;13.40;8.80;;;;;;;10.48;100.00;95963.84;5015510;28;20435;-77
2021/08/25 04:02:21;;;;;;;12.70;8.82;;;;;;;10.55;99.88;95964.41;5025231;28;20080;-79
2021/08/25 04:04:46;;;;;;;14.65;9.18;;;;;;;10.58;100.00;95968.38;5029383;28;20041;-77
2021/08/25 04:07:13;;;;;;;14.27;8.50;;;;;;;10.56;99.77;95966.00;5011687;28;20045;-77
2021/08/25 04:09:39;;;;;;;13.25;9.32;;;;;;;10.38;100.00;95966.44;5022751;28;20096;-77
2021/08/25 04:12:05;;;;;;;17.50;9.45;;;;;;;10.42;100.00;95962.25;4991822;28;20046;-77
2021/08/25 04:14:31;;;;;;;12.68;8.60;;;;;;;10.36;100.00;95961.44;4990973;28;20126;-77
2021/08/25 04:16:56;;;;;;;18.83;9.55;;;;;;;10.35;100.00;95953.81;5009250;28;20038;-77
2021/08/25 04:19:22;;;;;;;14.55;8.68;;;;;;;10.36;100.00;95944.88;5009093;28;20034;-77
2021/08/25 04:21:47;;;;;;;15.27;9.52;;;;;;;10.24;100.00;95958.19;5009142;28;20034;-77
2021/08/25 04:24:13;;;;;;;15.15;9.27;;;;;;;10.22;100.00;95955.81;5009387;28;20514;-77
2021/08/25 04:26:38;;;;;;;14.15;8.98;;;;;;;10.28;100.00;95954.00;5009521;28;20655;-77
2021/08/25 04:29:04;;;;;;;14.57;8.90;;;;;;;10.33;99.87;95951.41;5007947;28;20042;-77
2021/08/25 04:31:29;;;;;;;14.63;8.60;;;;;;;10.29;99.87;95944.28;5010618;28;20065;-77
2021/08/25 04:33:55;;;;;;;17.77;9.25;;;;;;;10.35;99.40;95959.06;5028720;28;20554;-77
2021/08/25 04:36:20;;;;;;;13.00;9.20;;;;;;;10.12;100.00;95953.13;5011165;28;20037;-77
2021/08/25 04:38:46;;;;;;;16.05;9.70;;;;;;;10.09;100.00;95951.00;5002660;28;20042;-77
2021/08/25 04:41:11;;;;;;;16.80;9.70;;;;;;;10.12;100.00;95955.75;4991440;28;20130;-77
2021/08/25 04:43:37;;;;;;;15.02;9.25;;;;;;;10.10;100.00;95954.44;5008853;28;20487;-77
2021/08/25 04:46:02;;;;;;;13.77;9.57;;;;;;;10.04;100.00;95958.84;4991591;28;20042;-77
2021/08/25 04:48:28;;;;;;;16.45;9.18;;;;;;;10.05;100.00;95958.59;5008806;28;20041;-77
2021/08/25 04:50:54;;;;;;;16.15;9.63;;;;;;;10.00;100.00;95953.34;5008698;28;20046;-77
2021/08/25 04:53:19;;;;;;;15.90;9.68;;;;;;;10.03;100.00;95952.03;5009578;28;20096;-77
2021/08/25 04:55:45;;;;;;;15.45;9.82;;;;;;;10.10;100.00;95963.13;5007926;28;20064;-78
2021/08/25 04:58:11;;;;;;;16.17;10.15;;;;;;;10.03;100.00;95952.03;5009338;28;20181;-77
2021/08/25 05:00:36;;;;;;;20.92;11.02;;;;;;;10.04;100.00;95958.84;5012572;28;20466;-77
2021/08/25 05:03:02;;;;;;;21.52;11.95;;;;;;;10.02;100.00;95950.44;5008315;28;20049;-77
2021/08/25 05:05:28;;;;;;;18.52;10.98;;;;;;;10.03;100.00;95949.41;5009122;28;20141;-77
2021/08/25 05:07:53;;;;;;;16.73;10.45;;;;;;;10.12;100.00;95950.50;4991412;28;20038;-78
2021/08/25 05:10:19;;;;;;;17.77;11.38;;;;;;;10.05;100.00;95949.94;5016664;28;20513;-78
2021/08/25 05:12:45;;;;;;;17.33;11.00;;;;;;;10.09;100.00;95945.75;5010280;28;20148;-78
2021/08/25 05:15:11;;;;;;;18.15;11.32;;;;;;;10.11;100.00;95942.88;5028215;28;20041;-77
2021/08/25 05:17:36;;;;;;;19.75;11.05;;;;;;;10.11;100.00;95948.91;5023907;28;20053;-77
2021/08/25 05:20:04;;;;;;;18.90;11.25;;;;;;;10.19;100.00;95940.53;5021711;28;20056;-77
2021/08/25 05:22:30;;;;;;;27.15;11.55;;;;;;;10.28;100.00;95942.69;5001885;28;20049;-77
2021/08/25 05:24:55;;;;;;;19.25;11.30;;;;;;;10.29;100.00;95945.06;5027896;28;20524;-77
2021/08/25 05:27:21;;;;;;;18.52;11.57;;;;;;;10.28;100.00;95951.38;5030229;28;20045;-77
2021/08/25 05:29:46;;;;;;;19.55;10.60;;;;;;;10.32;100.00;95954.28;5027479;28;20049;-77
2021/08/25 05:32:12;;;;;;;21.08;11.90;;;;;;;10.39;100.00;95960.91;5026261;28;20048;-77
2021/08/25 05:34:37;;;;;;;19.35;11.60;;;;;;;10.43;100.00;95966.47;5029184;28;20057;-77
2021/08/25 05:37:03;;;;;;;19.67;11.75;;;;;;;10.47;100.00;95957.00;5031369;28;20499;-77
2021/08/25 05:39:29;;;;;;;20.30;12.27;;;;;;;10.44;100.00;95952.25;5028255;28;20038;-77
2021/08/25 05:41:54;;;;;;;23.58;12.27;;;;;;;10.55;100.00;95958.34;5031734;28;20041;-77
2021/08/25 05:44:20;;;;;;;18.30;11.30;;;;;;;10.53;100.00;95961.25;5030854;28;20506;-78
2021/08/25 05:46:45;;;;;;;22.50;11.15;;;;;;;10.58;100.00;95958.63;5031894;28;20140;-77
2021/08/25 05:49:11;;;;;;;16.67;10.82;;;;;;;10.61;100.00;95951.28;5027233;28;20053;-76
2021/08/25 05:51:37;;;;;;;18.63;11.40;;;;;;;10.71;100.00;95951.31;5028169;28;20049;-77
2021/08/25 05:54:03;;;;;;;19.33;11.18;;;;;;;10.74;99.96;95945.50;5020987;28;20411;-77
2021/08/25 05:56:28;;;;;;;17.05;10.48;;;;;;;10.81;100.00;95945.28;5028205;28;20049;-77
2021/08/25 05:58:54;;;;;;;15.93;9.90;;;;;;;10.80;98.62;95948.94;5027870;28;20045;-77
2021/08/25 06:01:20;;;;;;;13.98;9.30;;;;;;;10.85;98.79;95952.38;5023727;28;20037;-77
2021/08/25 06:03:46;;;;;;;13.80;9.38;;;;;;;10.90;98.85;95954.25;5031492;28;20061;-77
2021/08/25 06:06:12;;;;;;;14.30;9.05;;;;;;;11.01;97.23;95955.84;5030520;28;20046;-77
2021/08/25 06:08:40;;;;;;;17.40;8.85;;;;;;;10.99;97.59;95946.63;5011927;28;20064;-77
2021/08/25 06:11:06;;;;;;;14.07;8.80;;;;;;;11.07;97.97;95954.00;5020304;28;20053;-77
2021/08/25 06:13:31;;;;;;;15.18;8.63;;;;;;;11.05;97.65;95958.75;5030273;28;20049;-77
2021/08/25 06:15:56;;;;;;;17.40;8.35;;;;;;;11.13;96.54;95952.97;5027540;28;20521;-77
2021/08/25 06:18:22;;;;;;;14.68;8.77;;;;;;;11.21;96.38;95949.81;5031571;28;20045;-77
2021/08/25 06:20:48;;;;;;;14.27;8.25;;;;;;;11.18;95.88;95955.63;5019076;28;20050;-77
2021/08/25 06:23:13;;;;;;;12.68;7.78;;;;;;;11.19;95.81;95951.94;5013294;28;20510;-77
2021/08/25 06:25:42;;;;;;;14.85;8.13;;;;;;;11.25;95.74;95958.78;5030722;28;20107;-77
2021/08/25 06:28:07;;;;;;;15.55;8.25;;;;;;;11.37;96.22;95953.25;5013310;28;20073;-77
2021/08/25 06:30:33;;;;;;;15.57;7.72;;;;;;;11.37;94.17;95957.75;5023829;28;20065;-78
2021/08/25 06:32:58;;;;;;;12.07;7.57;;;;;;;11.44;96.21;95958.25;4994306;28;20050;-77
2021/08/25 06:35:24;;;;;;;11.90;7.32;;;;;;;11.42;94.77;95955.91;5022217;28;20041;-78
2021/08/25 06:37:49;;;;;;;13.50;7.55;;;;;;;11.44;95.71;95950.34;5028770;28;20038;-77
2021/08/25 06:40:15;;;;;;;13.30;7.53;;;;;;;11.55;95.62;95951.94;5011748;28;20041;-77
2021/08/25 06:42:42;;;;;;;14.00;7.38;;;;;;;11.58;95.69;95953.28;5031824;28;20049;-78
2021/08/25 06:45:09;;;;;;;12.57;6.80;;;;;;;11.69;94.53;95957.44;5030306;28;20128;-78
2021/08/25 06:47:35;;;;;;;13.80;6.85;;;;;;;11.68;93.69;95950.63;5018880;28;20045;-78
2021/08/25 06:50:00;;;;;;;13.02;7.00;;;;;;;11.72;92.94;95949.03;5029991;28;20037;-78
2021/08/25 06:52:26;;;;;;;12.48;6.50;;;;;;;11.94;92.46;95946.13;5020595;28;20045;-78
2021/08/25 06:54:51;;;;;;;12.00;6.18;;;;;;;12.19;91.21;95948.97;5022228;28;20048;-78
2021/08/25 06:57:17;;;;;;;13.98;6.60;;;;;;;12.03;91.97;95938.44;5012495;28;20057;-78
2021/08/25 06:59:42;;;;;;;9.98;6.55;;;;;;;12.11;92.08;95929.19;5025223;28;20040;-78
2021/08/25 07:02:08;;;;;;;9.80;6.18;;;;;;;12.20;91.03;95932.88;5026581;28;20065;-77
2021/08/25 07:04:33;;;;;;;10.70;6.53;;;;;;;12.07;91.42;95939.50;5028690;28;20068;-78
2021/08/25 07:06:59;;;;;;;11.55;6.53;;;;;;;12.06;91.83;95931.84;5030247;28;20056;-78
2021/08/25 07:09:25;;;;;;;10.07;6.20;;;;;;;12.22;90.76;95929.97;5028530;28;20049;-78
2021/08/25 07:11:50;;;;;;;11.50;6.53;;;;;;;12.17;91.91;95936.06;5029782;28;20848;-78
2021/08/25 07:14:16;;;;;;;10.52;6.40;;;;;;;12.36;90.77;95919.63;5028870;28;20046;-77
2021/08/25 07:16:41;;;;;;;10.02;6.15;;;;;;;12.27;90.61;95928.09;5008835;28;20041;-77
2021/08/25 07:19:07;;;;;;;10.40;5.57;;;;;;;12.24;90.15;95923.38;5026312;28;20049;-77
2021/08/25 07:21:32;;;;;;;8.65;5.30;;;;;;;12.28;91.01;95929.69;5026985;28;20453;-78
2021/08/25 07:23:59;;;;;;;12.32;5.97;;;;;;;12.33;91.11;95933.38;5027084;28;20048;-78
2021/08/25 07:26:25;;;;;;;9.63;5.05;;;;;;;12.40;88.98;95925.94;5023705;28;20053;-78
2021/08/25 07:28:50;;;;;;;10.00;5.53;;;;;;;12.70;87.69;95932.13;5024158;28;20048;-78
2021/08/25 07:31:16;;;;;;;8.88;5.30;;;;;;;12.90;86.60;95929.41;5025692;28;20068;-77
2021/08/25 07:33:42;;;;;;;8.40;4.78;;;;;;;12.73;86.89;95928.94;5009054;28;20041;-77
2021/08/25 07:36:08;;;;;;;8.52;5.28;;;;;;;12.68;87.84;95934.25;5012302;28;20045;-78
2021/08/25 07:38:35;;;;;;;12.10;5.60;;;;;;;12.73;85.90;95939.50;5027426;28;20040;-77
2021/08/25 07:41:00;;;;;;;8.95;4.78;;;;;;;12.82;86.08;95928.09;5022741;28;20605;-76
2021/08/25 07:43:26;;;;;;;8.20;4.93;;;;;;;12.81;86.42;95931.03;5026070;28;20049;-76
2021/08/25 07:45:52;;;;;;;9.10;5.00;;;;;;;12.86;84.51;95925.72;5028128;28;20064;-76
2021/08/25 07:48:17;;;;;;;10.13;5.15;;;;;;;12.90;85.25;95929.41;5027036;28;20042;-76
2021/08/25 07:50:43;;;;;;;9.00;5.32;;;;;;;12.95;84.88;95931.22;5026457;28;20120;-76
2021/08/25 07:53:08;;;;;;;26.52;5.43;;;;;;;13.05;85.07;95936.44;5013595;28;20479;-76
2021/08/25 07:55:34;;;;;;;9.20;4.78;;;;;;;13.03;83.33;95927.19;5009186;28;20053;-76
2021/08/25 07:57:59;;;;;;;8.68;4.70;;;;;;;13.09;82.41;95931.41;5003776;28;20049;-75
2021/08/25 08:00:25;;;;;;;15.18;4.57;;;;;;;13.12;83.22;95930.84;5010644;28;20044;-76
2021/08/25 08:02:50;;;;;;;8.98;4.20;;;;;;;13.11;84.43;95929.25;5024553;28;20060;-76
2021/08/25 08:05:16;;;;;;;9.70;4.28;;;;;;;13.20;83.89;95932.88;5023442;28;20388;-76
2021/08/25 08:07:42;;;;;;;9.02;4.65;;;;;;;13.25;81.03;95932.06;5023628;28;20130;-81
2021/08/25 08:10:07;;;;;;;8.10;4.07;;;;;;;13.47;82.59;95921.88;5019969;28;20037;-76
2021/08/25 08:12:33;;;;;;;8.82;4.70;;;;;;;13.47;80.95;95936.94;5027444;28;20040;-78
2021/08/25 08:14:59;;;;;;;7.38;4.22;;;;;;;13.37;81.25;95937.03;5011944;28;20049;-78
2021/08/25 08:17:24;;;;;;;8.27;4.60;;;;;;;13.46;80.90;95930.06;5022902;28;20057;-77
2021/08/25 08:19:51;;;;;;;9.38;4.82;;;;;;;13.50;82.22;95936.38;5012135;28;20152;-77
2021/08/25 08:22:16;;;;;;;12.73;5.05;;;;;;;13.52;79.78;95929.00;5018218;28;20057;-77
2021/08/25 08:24:42;;;;;;;7.75;4.60;;;;;;;13.54;79.54;95937.41;5027795;28;20041;-77
2021/08/25 08:27:07;;;;;;;7.38;4.60;;;;;;;13.57;80.38;95936.88;5003640;28;20423;-76
2021/08/25 08:29:34;;;;;;;9.05;4.47;;;;;;;13.54;80.41;95932.13;5007050;28;20135;-76
2021/08/25 08:32:00;;;;;;;9.02;5.10;;;;;;;13.66;79.52;95939.69;5016907;28;20042;-76
2021/08/25 08:34:26;;;;;;;8.70;4.63;;;;;;;13.85;78.26;95932.66;5020721;28;20085;-76
2021/08/25 08:36:51;;;;;;;7.22;4.40;;;;;;;14.07;77.75;95934.03;5009701;28;20802;-77
2021/08/25 08:39:17;;;;;;;16.25;4.85;;;;;;;14.07;77.44;95943.81;5021749;28;20516;-79
2021/08/25 08:41:43;;;;;;;8.82;4.90;;;;;;;13.91;76.59;95933.38;5004079;28;20089;-77
2021/08/25 08:44:11;;;;;;;9.07;4.85;;;;;;;13.86;78.98;95934.22;5006819;28;20042;-77
2021/08/25 08:46:38;;;;;;;7.93;4.70;;;;;;;13.94;77.06;95935.47;5023156;28;20062;-76
2021/08/25 08:49:05;;;;;;;8.68;4.60;;;;;;;14.15;78.83;95943.19;5020002;28;20046;-78
2021/08/25 08:51:30;;;;;;;8.40;4.78;;;;;;;14.04;76.38;95935.38;5006073;28;20050;-78
2021/08/25 08:53:56;;;;;;;9.68;4.53;;;;;;;13.98;76.49;95931.19;4997023;28;20399;-78
2021/08/25 08:56:22;;;;;;;8.88;4.80;;;;;;;14.06;75.36;95936.94;5007333;28;20117;-75
2021/08/25 08:58:48;;;;;;;9.77;4.35;;;;;;;13.99;74.80;95927.50;5022152;28;20465;-75
2021/08/25 09:01:14;;;;;;;9.10;4.53;;;;;;;14.13;75.38;95922.31;5023413;28;20046;-77
2021/08/25 09:03:41;;;;;;;7.93;4.40;;;;;;;14.53;77.60;95927.41;5001248;28;20054;-78
2021/08/25 09:06:08;;;;;;;8.00;4.30;;;;;;;14.38;75.51;95918.59;5016945;28;20057;-76
2021/08/25 09:08:39;;;;;;;9.80;4.80;;;;;;;14.42;75.18;95923.31;5021981;28;20076;-77
2021/08/25 09:11:16;;;;;;;8.77;4.30;;;;;;;14.45;75.11;95914.78;5009913;28;20042;-76
2021/08/25 09:13:50;;;;;;;10.93;4.60;;;;;;;14.59;74.45;95918.31;5028397;28;20057;-78
2021/08/25 09:16:30;;;;;;;9.50;4.67;;;;;;;14.76;72.08;95917.88;5025213;28;20045;-76
2021/08/25 09:19:06;;;;;;;9.77;4.18;;;;;;;15.11;76.25;95923.72;5018400;28;20042;-80
2021/08/25 09:21:42;;;;;;;8.05;4.30;;;;;;;15.22;71.75;95924.38;5028000;28;20042;-74
2021/08/25 09:24:09;;;;;;;7.55;3.92;;;;;;;15.09;70.71;95925.13;5027925;28;20046;-80
2021/08/25 09:26:37;;;;;;;9.63;3.95;;;;;;;14.92;71.68;95926.41;5014484;28;20049;-82
2021/08/25 09:29:20;;;;;;;12.30;4.47;;;;;;;14.80;70.41;95918.09;5026749;28;20042;-75
2021/08/25 09:31:47;;;;;;;10.63;4.20;;;;;;;14.86;74.05;95919.59;5015784;28;20037;-82
2021/08/25 09:34:25;;;;;;;11.15;4.60;;;;;;;15.18;73.79;95913.56;5029283;28;20137;-79
2021/08/25 09:37:07;;;;;;;8.68;4.43;;;;;;;15.13;69.54;95913.66;5018380;28;20053;-80
2021/08/25 09:39:34;;;;;;;7.72;4.07;;;;;;;15.00;69.23;95919.69;5027471;28;20666;-76
2021/08/25 09:42:04;;;;;;;8.35;4.30;;;;;;;14.97;68.75;95913.09;5010247;28;20042;-75
2021/08/25 09:44:29;;;;;;;9.07;4.70;;;;;;;15.20;69.16;95910.63;5010512;28;20110;-79
2021/08/25 09:46:55;;;;;;;10.13;4.65;;;;;;;15.23;68.64;95915.38;5031331;28;20517;-74
2021/08/25 09:49:20;;;;;;;10.75;4.75;;;;;;;15.49;69.79;95907.00;5028278;28;20046;-76
2021/08/25 09:51:46;;;;;;;8.98;4.38;;;;;;;15.71;67.78;95899.16;5029180;28;20549;-75
2021/08/25 09:54:14;;;;;;;10.63;4.80;;;;;;;15.64;68.41;95904.06;5023170;28;20049;-75
2021/08/25 09:56:41;;;;;;;11.50;5.43;;;;;;;15.66;70.16;95901.13;5028113;28;20046;-75
2021/08/25 09:59:09;;;;;;;8.43;4.90;;;;;;;15.44;66.98;95910.50;5027503;28;20052;-75
2021/08/25 10:01:35;;;;;;;11.45;4.50;;;;;;;15.65;69.08;95895.03;5027853;28;20048;-75
2021/08/25 10:04:09;;;;;;;9.05;4.88;;;;;;;15.71;67.80;95904.47;5005517;28;20045;-74
2021/08/25 10:06:37;;;;;;;9.23;4.90;;;;;;;16.18;67.54;95899.16;5024026;28;20037;-74
2021/08/25 10:09:07;;;;;;;8.88;4.57;;;;;;;16.37;65.51;95885.75;5027660;28;20041;-74
2021/08/25 10:11:36;;;;;;;8.07;4.30;;;;;;;16.42;64.56;95892.81;5026225;28;20388;-75
2021/08/25 10:14:18;;;;;;;6.88;3.95;;;;;;;17.16;64.53;95885.69;5022698;28;20124;-74
2021/08/25 10:16:46;;;;;;;11.90;4.97;;;;;;;17.30;61.43;95881.09;5023937;28;20046;-74
2021/08/25 10:19:37;;;;;;;9.30;4.38;;;;;;;17.59;61.97;95877.19;5024755;28;20111;-74
2021/08/25 10:22:15;;;;;;;9.02;4.45;;;;;;;18.08;58.21;95872.75;5024176;28;20060;-75
2021/08/25 10:24:52;;;;;;;8.00;4.30;;;;;;;17.97;56.84;95869.59;5024784;28;20061;-74
2021/08/25 10:27:19;;;;;;;8.07;4.20;;;;;;;18.20;60.08;95868.69;5023961;28;20072;-74
2021/08/25 10:30:06;;;;;;;8.40;5.00;;;;;;;18.25;59.08;95861.34;5025861;28;20074;-73
2021/08/25 10:32:34;;;;;;;8.75;4.30;;;;;;;18.55;55.37;95863.44;5023689;28;20041;-76
2021/08/25 10:35:20;;;;;;;7.78;4.38;;;;;;;18.31;59.42;95854.78;5025486;28;20120;-75
2021/08/25 10:37:47;;;;;;;6.75;3.90;;;;;;;18.85;59.42;95857.19;5021018;28;20053;-76
2021/08/25 10:40:15;;;;;;;10.32;4.70;;;;;;;19.38;53.79;95857.19;5016052;28;20045;-74
2021/08/25 10:42:48;;;;;;;7.55;4.38;;;;;;;19.79;55.17;95839.81;5026109;28;20091;-78
2021/08/25 10:45:15;;;;;;;8.57;4.30;;;;;;;19.73;51.85;95851.75;5029757;28;20033;-79
2021/08/25 10:48:02;;;;;;;9.95;4.70;;;;;;;19.69;55.33;95845.47;5023405;28;20132;-75
2021/08/25 10:50:49;;;;;;;6.97;4.00;;;;;;;20.21;54.09;95845.28;5023758;28;20048;-74
2021/08/25 10:53:31;;;;;;;7.75;4.03;;;;;;;19.62;53.30;95845.19;5016257;28;20529;-76
2021/08/25 10:56:18;;;;;;;7.70;3.92;;;;;;;19.49;53.46;95831.69;5027102;28;20052;-75
2021/08/25 10:58:43;;;;;;;7.55;4.30;;;;;;;18.90;53.33;95829.63;5015978;28;20037;-74
2021/08/25 11:01:29;;;;;;;6.72;4.13;;;;;;;19.19;54.39;95828.97;5019322;28;20095;-75
2021/08/25 11:03:57;;;;;;;7.88;4.13;;;;;;;20.62;52.41;95815.47;5014721;28;20065;-74
2021/08/25 11:06:31;;;;;;;9.90;4.10;;;;;;;21.16;49.26;95818.19;5023318;28;20045;-76
2021/08/25 11:09:19;;;;;;;7.00;3.85;;;;;;;21.07;49.95;95814.78;5026372;28;20102;-73
2021/08/25 11:11:47;;;;;;;6.75;3.70;;;;;;;21.08;50.06;95819.03;5023025;28;20037;-75
2021/08/25 11:14:20;;;;;;;7.13;4.10;;;;;;;19.94;51.62;95813.66;5029452;28;20418;-80
2021/08/25 11:16:47;;;;;;;5.85;3.60;;;;;;;20.36;51.84;95813.75;5003656;28;20053;-75
2021/08/25 11:19:23;;;;;;;7.35;4.10;;;;;;;20.99;48.81;95812.97;5021827;28;20045;-75
2021/08/25 11:21:50;;;;;;;7.30;3.95;;;;;;;21.51;47.54;95806.31;5016652;28;20514;-80
2021/08/25 11:24:15;;;;;;;7.15;4.05;;;;;;;21.10;48.83;95798.88;5021399;28;20041;-75
2021/08/25 11:26:41;;;;;;;8.30;4.32;;;;;;;20.73;48.94;95798.72;5024202;28;20060;-75